createdAt,value
2018-09-17T00:04:07.178Z,2.60
2018-09-17T00:09:11.646Z,2.90
2018-09-17T00:14:14.649Z,2.90
2018-09-17T00:19:17.690Z,2.70
2018-09-17T00:24:20.720Z,2.80
2018-09-17T00:29:23.711Z,2.63
2018-09-17T00:34:28.753Z,2.97
2018-09-17T00:39:32.350Z,3.10
2018-09-17T00:44:35.768Z,3.03
2018-09-17T00:49:38.830Z,2.77
2018-09-17T00:54:41.873Z,3.20
2018-09-17T00:59:44.875Z,3.50
2018-09-17T01:04:47.903Z,3.10
2018-09-17T01:09:50.931Z,3.50
2018-09-17T01:14:53.994Z,2.97
2018-09-17T01:19:58.241Z,3.50
2018-09-17T01:25:02.078Z,3.10
2018-09-17T01:30:05.643Z,3.33
2018-09-17T01:35:08.713Z,3.57
2018-09-17T01:40:11.799Z,3.73
2018-09-17T01:45:14.850Z,3.97
2018-09-17T01:50:17.955Z,3.60
2018-09-17T01:55:20.989Z,3.10
2018-09-17T02:00:24.046Z,3.43
2018-09-17T02:05:29.734Z,3.90
2018-09-17T02:10:33.470Z,3.80
2018-09-17T02:15:37.116Z,3.30
2018-09-17T02:20:40.122Z,3.50
2018-09-17T02:25:43.159Z,3.37
2018-09-17T02:30:46.217Z,3.70
2018-09-17T02:35:49.235Z,3.37
2018-09-17T02:40:52.254Z,4.20
2018-09-17T02:45:55.911Z,3.37
2018-09-17T02:51:00.601Z,3.07
2018-09-17T02:56:04.327Z,4.60
2018-09-17T03:01:07.865Z,3.77
2018-09-17T03:06:10.860Z,4.10
2018-09-17T03:11:13.886Z,3.87
2018-09-17T03:16:17.247Z,3.70
2018-09-17T03:21:20.651Z,3.33
2018-09-17T03:26:23.907Z,3.40
2018-09-17T03:31:28.185Z,3.70
2018-09-17T03:36:32.169Z,4.10
2018-09-17T03:41:35.566Z,3.40
2018-09-17T03:46:38.644Z,3.47
2018-09-17T03:51:41.657Z,3.73
2018-09-17T03:56:44.669Z,4.10
2018-09-17T04:01:47.702Z,3.37
2018-09-17T04:06:50.700Z,3.10
2018-09-17T04:11:53.756Z,4.13
2018-09-17T04:16:57.458Z,3.80
2018-09-17T04:22:01.670Z,3.57
2018-09-17T04:27:04.580Z,3.97
2018-09-17T04:32:07.596Z,3.33
2018-09-17T04:37:10.605Z,3.77
2018-09-17T04:42:13.624Z,3.90
2018-09-17T04:47:17.631Z,5.30
2018-09-17T04:52:21.753Z,4.70
2018-09-17T04:57:25.429Z,4.67
2018-09-17T05:02:28.416Z,3.90
2018-09-17T05:07:31.469Z,4.23
2018-09-17T05:12:34.481Z,7.93
2018-09-17T05:17:37.604Z,5.53
2018-09-17T05:22:40.614Z,4.43
2018-09-17T05:27:43.636Z,3.60
2018-09-17T05:32:47.624Z,3.70
2018-09-17T05:37:51.214Z,3.80
2018-09-17T05:42:55.062Z,4.80
2018-09-17T05:47:58.235Z,3.60
2018-09-17T05:53:01.225Z,4.50
2018-09-17T05:58:04.340Z,4.97
2018-09-17T06:03:07.359Z,3.80
2018-09-17T06:08:10.397Z,4.50
2018-09-17T06:13:13.465Z,4.23
2018-09-17T06:18:17.786Z,4.10
2018-09-17T06:23:21.405Z,4.60
2018-09-17T06:28:25.081Z,4.10
2018-09-17T06:33:28.177Z,4.20
2018-09-17T06:38:31.190Z,4.50
2018-09-17T06:43:34.189Z,4.23
2018-09-17T06:48:37.189Z,4.23
2018-09-17T06:53:40.218Z,4.30
2018-09-17T06:58:44.922Z,4.90
2018-09-17T07:03:49.198Z,4.87
2018-09-17T07:08:52.936Z,4.90
2018-09-17T07:13:56.225Z,4.47
2018-09-17T07:18:59.262Z,4.53
2018-09-17T07:24:02.301Z,4.60
2018-09-17T07:29:05.567Z,4.33
2018-09-17T07:34:08.560Z,3.73
2018-09-17T07:39:11.794Z,3.97
2018-09-17T07:44:15.495Z,3.93
2018-09-17T07:49:19.428Z,3.13
2018-09-17T07:54:23.158Z,2.70
2018-09-17T07:59:26.781Z,3.40
2018-09-17T08:04:30.464Z,3.90
2018-09-17T08:09:33.599Z,3.60
2018-09-17T08:14:36.640Z,3.40
2018-09-17T08:19:39.702Z,5.47
2018-09-17T08:24:42.747Z,2.80
2018-09-17T08:29:45.766Z,3.50
2018-09-17T08:34:49.041Z,2.90
2018-09-17T08:39:53.123Z,3.50
2018-09-17T08:44:56.623Z,3.03
2018-09-17T08:49:59.949Z,3.10
2018-09-17T08:55:10.043Z,3.20
2018-09-17T09:00:17.110Z,2.93
2018-09-17T09:05:26.758Z,3.80
2018-09-17T09:11:39.631Z,3.10
2018-09-17T09:16:43.095Z,2.73
2018-09-17T09:21:46.931Z,2.40
2018-09-17T09:26:52.489Z,2.70
2018-09-17T09:31:56.595Z,2.70
2018-09-17T09:36:59.665Z,2.10
2018-09-17T09:42:02.809Z,1.80
2018-09-17T09:47:05.882Z,1.80
2018-09-17T09:52:08.917Z,2.00
2018-09-17T09:57:12.049Z,1.70
2018-09-17T10:02:21.268Z,1.60
2018-09-17T10:07:25.913Z,2.03
2018-09-17T10:12:35.330Z,1.70
2018-09-17T10:17:44.090Z,2.30
2018-09-17T10:22:47.130Z,2.00
2018-09-17T10:27:52.024Z,1.90
2018-09-17T10:32:56.387Z,1.60
2018-09-17T10:38:00.534Z,1.30
2018-09-17T10:43:04.549Z,2.00
2018-09-17T10:48:08.709Z,1.70
2018-09-17T10:53:12.571Z,1.77
2018-09-17T10:58:16.619Z,1.40
2018-09-17T11:03:21.602Z,2.20
2018-09-17T11:08:25.510Z,1.90
2018-09-17T11:13:28.589Z,2.20
2018-09-17T11:18:31.623Z,2.30
2018-09-17T11:23:34.702Z,1.97
2018-09-17T11:28:37.753Z,1.97
2018-09-17T11:33:40.817Z,2.57
2018-09-17T11:38:46.617Z,2.80
2018-09-17T11:43:50.507Z,1.80
2018-09-17T11:48:56.344Z,2.30
2018-09-17T11:53:59.468Z,2.57
2018-09-17T11:59:02.565Z,2.33
2018-09-17T12:04:11.453Z,2.00
2018-09-17T12:09:14.578Z,2.60
2018-09-17T12:14:18.821Z,2.37
2018-09-17T12:19:23.369Z,2.80
2018-09-17T12:24:27.589Z,2.23
2018-09-17T12:29:30.613Z,2.33
2018-09-17T12:34:33.663Z,2.40
2018-09-17T12:39:36.739Z,1.87
2018-09-17T12:44:39.829Z,2.50
2018-09-17T12:49:43.954Z,2.13
2018-09-17T12:54:47.044Z,1.83
2018-09-17T12:59:50.782Z,2.10
2018-09-17T13:04:53.844Z,2.07
2018-09-17T13:09:58.717Z,1.93
2018-09-17T13:15:02.841Z,2.00
2018-09-17T13:20:07.415Z,1.80
2018-09-17T13:25:10.458Z,1.50
2018-09-17T13:30:13.530Z,1.90
2018-09-17T13:35:16.615Z,2.00
2018-09-17T13:40:19.653Z,1.73
2018-09-17T13:45:23.128Z,1.90
2018-09-17T13:50:29.063Z,2.07
2018-09-17T13:55:32.753Z,1.87
2018-09-17T14:00:36.605Z,1.80
2018-09-17T14:05:41.740Z,1.90
2018-09-17T14:10:44.890Z,1.90
2018-09-17T14:15:53.666Z,2.00
2018-09-17T14:20:58.140Z,2.20
2018-09-17T14:26:03.216Z,2.60
2018-09-17T14:31:06.648Z,2.47
2018-09-17T14:36:10.753Z,2.30
2018-09-17T14:41:13.892Z,2.63
2018-09-17T14:46:17.554Z,2.40
2018-09-17T14:51:21.153Z,3.30
2018-09-17T14:56:25.592Z,2.90
2018-09-17T15:01:29.517Z,2.50
2018-09-17T15:06:33.429Z,2.97
2018-09-17T15:11:36.483Z,3.00
2018-09-17T15:16:39.577Z,3.37
2018-09-17T15:21:42.629Z,3.70
2018-09-17T15:26:46.256Z,3.00
2018-09-17T15:31:49.681Z,3.23
2018-09-17T15:36:54.911Z,3.07
2018-09-17T15:41:58.938Z,3.43
2018-09-17T15:47:01.995Z,3.50
2018-09-17T15:52:05.234Z,3.67
2018-09-17T15:57:08.362Z,2.77
2018-09-17T16:02:11.490Z,3.07
2018-09-17T16:07:15.528Z,3.90
2018-09-17T16:12:19.762Z,4.27
2018-09-17T16:17:22.789Z,4.23
2018-09-17T16:22:25.986Z,3.87
2018-09-17T16:27:30.214Z,3.53
2018-09-17T16:32:35.731Z,3.30
2018-09-17T16:37:40.840Z,3.50
2018-09-17T16:42:47.306Z,12.50
2018-09-17T16:47:51.756Z,4.47
2018-09-17T16:52:54.941Z,4.50
2018-09-17T16:57:57.975Z,4.50
2018-09-17T17:03:00.977Z,3.63
2018-09-17T17:08:04.086Z,3.70
2018-09-17T17:13:07.386Z,3.37
2018-09-17T17:18:12.238Z,3.20
2018-09-17T17:23:16.130Z,3.00
2018-09-17T17:28:20.046Z,2.60
2018-09-17T17:33:23.263Z,2.60
2018-09-17T17:38:26.319Z,3.70
2018-09-17T17:43:30.614Z,3.80
2018-09-17T17:48:34.500Z,3.40
2018-09-17T17:53:39.098Z,3.90
2018-09-17T17:58:42.246Z,6.33
2018-09-17T18:03:45.611Z,6.50
2018-09-17T18:08:48.914Z,5.17
2018-09-17T18:13:52.116Z,4.50
2018-09-17T18:18:55.587Z,4.27
2018-09-17T18:23:59.790Z,4.47
2018-09-17T18:29:03.759Z,3.27
2018-09-17T18:34:09.251Z,3.50
2018-09-17T18:39:12.832Z,3.40
2018-09-17T18:44:17.329Z,3.20
2018-09-17T18:49:21.116Z,4.00
2018-09-17T18:54:24.662Z,3.07
2018-09-17T18:59:28.912Z,3.10
2018-09-17T19:04:32.267Z,3.13
2018-09-17T19:09:42.528Z,2.40
2018-09-17T19:14:52.480Z,2.30
2018-09-17T19:19:56.511Z,3.13
2018-09-17T19:25:00.148Z,3.20
2018-09-17T19:30:04.521Z,3.23
2018-09-17T19:35:08.864Z,3.00
2018-09-17T19:40:16.479Z,7.63
2018-09-17T19:45:25.934Z,3.97
2018-09-17T19:50:35.155Z,3.40
2018-09-17T19:55:39.142Z,3.00
2018-09-17T20:00:45.468Z,2.90
2018-09-17T20:05:55.492Z,3.63
2018-09-17T20:11:00.134Z,3.37
2018-09-17T20:16:04.366Z,3.20
2018-09-17T20:21:10.079Z,2.80
2018-09-17T20:26:15.364Z,3.10
2018-09-17T20:31:21.566Z,3.33
2018-09-17T20:36:24.636Z,3.50
2018-09-17T20:41:27.784Z,3.30
2018-09-17T20:46:30.801Z,4.13
2018-09-17T20:51:33.854Z,3.23
2018-09-17T20:56:36.942Z,3.10
2018-09-17T21:01:42.219Z,2.87
2018-09-17T21:06:46.712Z,2.87
2018-09-17T21:11:50.990Z,3.47
2018-09-17T21:16:55.093Z,3.10
2018-09-17T21:21:58.118Z,2.73
2018-09-17T21:27:01.132Z,3.23
2018-09-17T21:32:04.817Z,3.63
2018-09-17T21:37:09.289Z,3.73
2018-09-17T21:42:14.467Z,3.70
2018-09-17T21:47:18.137Z,3.20
2018-09-17T21:52:21.595Z,3.50
2018-09-17T21:57:24.627Z,3.40
2018-09-17T22:02:28.896Z,3.57
2018-09-17T22:07:31.977Z,3.67
2018-09-17T22:12:35.048Z,3.60
2018-09-17T22:17:38.875Z,3.80
2018-09-17T22:22:43.878Z,3.57
2018-09-17T22:27:48.030Z,4.30
2018-09-17T22:32:51.425Z,4.17
2018-09-17T22:37:54.564Z,4.30
2018-09-17T22:42:57.601Z,4.20
2018-09-17T22:48:00.636Z,3.83
2018-09-17T22:53:03.793Z,4.10
2018-09-17T22:58:07.247Z,3.63
2018-09-17T23:03:12.166Z,3.77
2018-09-17T23:08:15.742Z,3.70
2018-09-17T23:13:19.002Z,3.80
2018-09-17T23:18:22.019Z,4.33
2018-09-17T23:23:25.034Z,3.77
2018-09-17T23:28:28.063Z,3.60
2018-09-17T23:33:31.078Z,3.80
2018-09-17T23:38:34.541Z,3.70
2018-09-17T23:43:38.662Z,3.70
2018-09-17T23:48:44.343Z,3.70
2018-09-17T23:53:47.788Z,4.00
2018-09-17T23:58:51.360Z,3.80
